Brownwood, TX

10:52 PM CDT on August 27, 2015 (GMT -0500)
Brownwood Regional | | Change Station
CLOSE
Current Station
Airport
Location: Brownwood,
Elevation: 1385 ft
Nearby Weather Stations

Elev 1385 ft 31.79 °N, 98.96 °W | Updated 17 minutes ago

Partly Cloudy
Partly Cloudy
75 °F
Feels Like 75 °F
N
4
Wind Variable Wind from ESE

Today
High -- | Low -- °F
--% Chance of Precip.
Yesterday
High -- | Low -- °F
Precip. -- in
7:08 AM 8:06 PM
Waxing Gibbous, 96% visible
Pressure 30.02 in
Visibility 10.0 miles
Clouds Few 4800 ft
Mostly Cloudy 6000 ft
Dew Point 68 °F
Humidity 78%
Rainfall 0.03 in
Snow Depth Not available.
UV 0 out of 12
Pollen 8.00 out of 12
Air Quality Not available.
Flu Activity Not available.
METAR KBWD 280335Z AUTO 12003KT 10SM FEW048 BKN060 24/20 A3002 RMK AO2
Pressure 30.02 in
Visibility 10.0 miles
Clouds Few 4800 ft
Mostly Cloudy 6000 ft
Dew Point 68 °F
Humidity 78%
Rainfall 0.03 in
Snow Depth Not available.
UV 0 out of 12
Pollen 8.00 out of 12
Air Quality Not available.
Flu Activity Not available.
METAR KBWD 280335Z AUTO 12003KT 10SM FEW048 BKN060 24/20 A3002 RMK AO2

10-Day Weather Forecast

×

Almanac

Astronomy

Aug. 27, 2015 Rise Set
Actual Time
Civil Twilight
Nautical Twilight
Astronomical Twilight
Moon
Length of Visible Light
Length of Day
Tomorrow will be .
, % of the Moon is Illuminated

Today's Extremes

State Highs State Lows

Community

WunderPhotos

Upload Photos

1,850,317 photos uploaded!

WunderBlogs® & News

Nearby

Air Quality

  Air Quality AQ Index Pollutant
Not available.

Snow Depth

Station Depth Elevation

Earthquake Activity

City Distance Mag. Time & Date
Minimum magnitude displayed is 2.5.

Coastal Water Temperatures

Place Temperature

Stations

Nearby Weather Stations

Station Location Temp. Windchill Dew Point Humidity Wind Precip. Elev Updated Type